sensor_id;sensor_type;location;lat;lon;timestamp;P1;durP1;ratioP1;P2;durP2;ratioP2
23230;SDS011;11784;49.818;8.632;2023-03-12T00:01:20;2.28;;;1.45;;
23230;SDS011;11784;49.818;8.632;2023-03-12T00:03:48;2.83;;;1.20;;
23230;SDS011;11784;49.818;8.632;2023-03-12T00:06:15;2.17;;;1.40;;
23230;SDS011;11784;49.818;8.632;2023-03-12T00:08:42;2.17;;;1.35;;
23230;SDS011;11784;49.818;8.632;2023-03-12T00:11:08;2.83;;;1.70;;
23230;SDS011;11784;49.818;8.632;2023-03-12T00:13:36;3.58;;;2.08;;
23230;SDS011;11784;49.818;8.632;2023-03-12T00:16:13;3.33;;;1.45;;
23230;SDS011;11784;49.818;8.632;2023-03-12T00:18:39;4.82;;;2.00;;
23230;SDS011;11784;49.818;8.632;2023-03-12T00:21:06;2.35;;;1.30;;
23230;SDS011;11784;49.818;8.632;2023-03-12T00:23:33;2.50;;;1.42;;
23230;SDS011;11784;49.818;8.632;2023-03-12T00:25:59;8.55;;;1.83;;
23230;SDS011;11784;49.818;8.632;2023-03-12T00:28:26;2.28;;;1.50;;
23230;SDS011;11784;49.818;8.632;2023-03-12T00:30:52;3.28;;;1.40;;
23230;SDS011;11784;49.818;8.632;2023-03-12T00:33:17;3.40;;;1.65;;
23230;SDS011;11784;49.818;8.632;2023-03-12T00:35:43;2.40;;;1.20;;
23230;SDS011;11784;49.818;8.632;2023-03-12T00:38:08;2.80;;;1.55;;
23230;SDS011;11784;49.818;8.632;2023-03-12T00:40:34;4.55;;;1.33;;
23230;SDS011;11784;49.818;8.632;2023-03-12T00:42:59;3.58;;;1.27;;
23230;SDS011;11784;49.818;8.632;2023-03-12T00:45:27;3.28;;;1.23;;
23230;SDS011;11784;49.818;8.632;2023-03-12T00:47:52;4.20;;;1.15;;
23230;SDS011;11784;49.818;8.632;2023-03-12T00:50:18;3.47;;;1.70;;
23230;SDS011;11784;49.818;8.632;2023-03-12T00:52:43;2.97;;;1.17;;
23230;SDS011;11784;49.818;8.632;2023-03-12T00:55:09;1.52;;;1.17;;
23230;SDS011;11784;49.818;8.632;2023-03-12T00:57:34;3.90;;;1.52;;
23230;SDS011;11784;49.818;8.632;2023-03-12T01:00:00;2.17;;;1.38;;
23230;SDS011;11784;49.818;8.632;2023-03-12T01:02:25;5.38;;;2.67;;
23230;SDS011;11784;49.818;8.632;2023-03-12T01:04:51;4.18;;;1.63;;
23230;SDS011;11784;49.818;8.632;2023-03-12T01:07:16;1.90;;;1.20;;
23230;SDS011;11784;49.818;8.632;2023-03-12T01:09:43;1.88;;;1.23;;
23230;SDS011;11784;49.818;8.632;2023-03-12T01:12:08;3.90;;;1.90;;
23230;SDS011;11784;49.818;8.632;2023-03-12T01:14:34;2.08;;;0.98;;
23230;SDS011;11784;49.818;8.632;2023-03-12T01:16:59;4.47;;;1.52;;
23230;SDS011;11784;49.818;8.632;2023-03-12T01:19:25;1.67;;;1.58;;
23230;SDS011;11784;49.818;8.632;2023-03-12T01:21:50;2.95;;;1.20;;
23230;SDS011;11784;49.818;8.632;2023-03-12T01:24:16;1.92;;;1.08;;
23230;SDS011;11784;49.818;8.632;2023-03-12T01:26:41;2.28;;;1.20;;
23230;SDS011;11784;49.818;8.632;2023-03-12T01:29:07;1.13;;;0.82;;
23230;SDS011;11784;49.818;8.632;2023-03-12T01:31:32;3.00;;;1.05;;
23230;SDS011;11784;49.818;8.632;2023-03-12T01:33:58;2.55;;;0.90;;
23230;SDS011;11784;49.818;8.632;2023-03-12T01:36:25;1.75;;;1.25;;
23230;SDS011;11784;49.818;8.632;2023-03-12T01:38:54;2.78;;;1.35;;
23230;SDS011;11784;49.818;8.632;2023-03-12T01:41:21;6.07;;;1.27;;
23230;SDS011;11784;49.818;8.632;2023-03-12T01:43:48;2.50;;;1.42;;
23230;SDS011;11784;49.818;8.632;2023-03-12T01:54:40;5.10;;;1.83;;
23230;SDS011;11784;49.818;8.632;2023-03-12T01:57:21;1.20;;;1.03;;
23230;SDS011;11784;49.818;8.632;2023-03-12T01:59:55;2.00;;;1.48;;
23230;SDS011;11784;49.818;8.632;2023-03-12T02:02:23;1.65;;;1.17;;
23230;SDS011;11784;49.818;8.632;2023-03-12T02:04:59;13.25;;;1.95;;
23230;SDS011;11784;49.818;8.632;2023-03-12T02:07:32;2.05;;;0.93;;
23230;SDS011;11784;49.818;8.632;2023-03-12T02:09:59;1.50;;;0.70;;
23230;SDS011;11784;49.818;8.632;2023-03-12T02:12:25;2.95;;;1.48;;
23230;SDS011;11784;49.818;8.632;2023-03-12T02:14:50;4.07;;;1.42;;
23230;SDS011;11784;49.818;8.632;2023-03-12T02:17:16;1.80;;;1.10;;
23230;SDS011;11784;49.818;8.632;2023-03-12T02:22:25;2.03;;;1.02;;
23230;SDS011;11784;49.818;8.632;2023-03-12T02:24:52;1.83;;;1.00;;
23230;SDS011;11784;49.818;8.632;2023-03-12T02:27:30;0.88;;;0.73;;
23230;SDS011;11784;49.818;8.632;2023-03-12T02:29:59;0.98;;;0.88;;
23230;SDS011;11784;49.818;8.632;2023-03-12T02:32:26;1.70;;;0.90;;
23230;SDS011;11784;49.818;8.632;2023-03-12T02:34:54;2.22;;;1.40;;
23230;SDS011;11784;49.818;8.632;2023-03-12T02:37:21;1.48;;;0.82;;
23230;SDS011;11784;49.818;8.632;2023-03-12T02:39:49;1.15;;;0.80;;
23230;SDS011;11784;49.818;8.632;2023-03-12T02:42:19;2.50;;;1.13;;
23230;SDS011;11784;49.818;8.632;2023-03-12T02:44:46;2.75;;;1.02;;
23230;SDS011;11784;49.818;8.632;2023-03-12T02:47:12;1.50;;;1.00;;
23230;SDS011;11784;49.818;8.632;2023-03-12T02:49:37;1.27;;;1.08;;
23230;SDS011;11784;49.818;8.632;2023-03-12T02:52:03;2.15;;;1.02;;
23230;SDS011;11784;49.818;8.632;2023-03-12T02:54:29;0.95;;;0.65;;
23230;SDS011;11784;49.818;8.632;2023-03-12T02:56:55;3.03;;;1.60;;
23230;SDS011;11784;49.818;8.632;2023-03-12T02:59:22;7.03;;;2.17;;
23230;SDS011;11784;49.818;8.632;2023-03-12T03:01:51;4.65;;;1.48;;
23230;SDS011;11784;49.818;8.632;2023-03-12T03:04:20;2.13;;;1.20;;
23230;SDS011;11784;49.818;8.632;2023-03-12T03:06:46;2.67;;;0.90;;
23230;SDS011;11784;49.818;8.632;2023-03-12T03:09:12;1.25;;;0.80;;
23230;SDS011;11784;49.818;8.632;2023-03-12T03:11:38;0.82;;;0.80;;
23230;SDS011;11784;49.818;8.632;2023-03-12T03:14:04;1.48;;;0.80;;
23230;SDS011;11784;49.818;8.632;2023-03-12T03:16:32;3.22;;;0.63;;
23230;SDS011;11784;49.818;8.632;2023-03-12T03:18:58;3.83;;;1.55;;
23230;SDS011;11784;49.818;8.632;2023-03-12T03:21:23;2.35;;;0.75;;
23230;SDS011;11784;49.818;8.632;2023-03-12T03:23:49;1.58;;;0.93;;
23230;SDS011;11784;49.818;8.632;2023-03-12T03:26:17;5.55;;;1.15;;
23230;SDS011;11784;49.818;8.632;2023-03-12T03:28:44;1.45;;;1.10;;
23230;SDS011;11784;49.818;8.632;2023-03-12T03:31:10;2.35;;;1.17;;
23230;SDS011;11784;49.818;8.632;2023-03-12T03:33:36;2.38;;;1.48;;
23230;SDS011;11784;49.818;8.632;2023-03-12T03:36:03;3.78;;;0.85;;
23230;SDS011;11784;49.818;8.632;2023-03-12T03:38:29;1.10;;;0.55;;
23230;SDS011;11784;49.818;8.632;2023-03-12T03:40:56;0.68;;;0.60;;
23230;SDS011;11784;49.818;8.632;2023-03-12T03:43:22;2.20;;;0.95;;
23230;SDS011;11784;49.818;8.632;2023-03-12T03:45:48;2.00;;;1.00;;
23230;SDS011;11784;49.818;8.632;2023-03-12T03:48:20;2.03;;;0.90;;
23230;SDS011;11784;49.818;8.632;2023-03-12T03:50:46;2.38;;;1.10;;
23230;SDS011;11784;49.818;8.632;2023-03-12T03:53:12;0.60;;;0.43;;
23230;SDS011;11784;49.818;8.632;2023-03-12T03:55:38;1.10;;;0.82;;
23230;SDS011;11784;49.818;8.632;2023-03-12T03:58:04;1.88;;;1.08;;
23230;SDS011;11784;49.818;8.632;2023-03-12T04:00:30;1.77;;;1.13;;
23230;SDS011;11784;49.818;8.632;2023-03-12T04:02:56;2.08;;;1.15;;
23230;SDS011;11784;49.818;8.632;2023-03-12T04:05:21;2.05;;;1.27;;
23230;SDS011;11784;49.818;8.632;2023-03-12T04:07:47;3.05;;;1.08;;
23230;SDS011;11784;49.818;8.632;2023-03-12T04:10:13;3.17;;;0.70;;
23230;SDS011;11784;49.818;8.632;2023-03-12T04:12:39;3.05;;;1.27;;
23230;SDS011;11784;49.818;8.632;2023-03-12T04:15:05;0.65;;;0.60;;
23230;SDS011;11784;49.818;8.632;2023-03-12T04:17:30;1.85;;;0.80;;
23230;SDS011;11784;49.818;8.632;2023-03-12T04:19:56;2.30;;;0.85;;
23230;SDS011;11784;49.818;8.632;2023-03-12T04:22:22;1.10;;;0.80;;
23230;SDS011;11784;49.818;8.632;2023-03-12T04:24:47;1.35;;;0.68;;
23230;SDS011;11784;49.818;8.632;2023-03-12T04:27:13;3.45;;;0.73;;
23230;SDS011;11784;49.818;8.632;2023-03-12T04:29:38;1.25;;;0.65;;
23230;SDS011;11784;49.818;8.632;2023-03-12T04:32:04;1.30;;;0.70;;
23230;SDS011;11784;49.818;8.632;2023-03-12T04:34:31;1.70;;;0.68;;
23230;SDS011;11784;49.818;8.632;2023-03-12T04:36:56;1.67;;;0.70;;
23230;SDS011;11784;49.818;8.632;2023-03-12T04:39:22;1.77;;;0.90;;
23230;SDS011;11784;49.818;8.632;2023-03-12T04:41:47;4.45;;;1.13;;
23230;SDS011;11784;49.818;8.632;2023-03-12T04:44:13;1.08;;;0.98;;
23230;SDS011;11784;49.818;8.632;2023-03-12T04:46:39;1.15;;;0.82;;
23230;SDS011;11784;49.818;8.632;2023-03-12T04:49:05;1.30;;;0.65;;
23230;SDS011;11784;49.818;8.632;2023-03-12T04:51:31;1.58;;;0.70;;
23230;SDS011;11784;49.818;8.632;2023-03-12T04:53:56;0.63;;;0.63;;
23230;SDS011;11784;49.818;8.632;2023-03-12T04:56:22;0.90;;;0.65;;
23230;SDS011;11784;49.818;8.632;2023-03-12T04:58:49;1.95;;;0.82;;
23230;SDS011;11784;49.818;8.632;2023-03-12T05:01:26;0.93;;;0.47;;
23230;SDS011;11784;49.818;8.632;2023-03-12T05:03:57;5.80;;;1.08;;
23230;SDS011;11784;49.818;8.632;2023-03-12T05:06:23;0.85;;;0.70;;
23230;SDS011;11784;49.818;8.632;2023-03-12T05:08:49;4.03;;;0.75;;
23230;SDS011;11784;49.818;8.632;2023-03-12T05:11:15;2.08;;;0.57;;
23230;SDS011;11784;49.818;8.632;2023-03-12T05:13:41;2.55;;;1.15;;
23230;SDS011;11784;49.818;8.632;2023-03-12T05:16:08;2.30;;;0.90;;
23230;SDS011;11784;49.818;8.632;2023-03-12T05:18:34;1.85;;;0.85;;
23230;SDS011;11784;49.818;8.632;2023-03-12T05:21:01;1.65;;;0.70;;
23230;SDS011;11784;49.818;8.632;2023-03-12T05:23:29;1.55;;;0.90;;
23230;SDS011;11784;49.818;8.632;2023-03-12T05:25:55;2.28;;;1.10;;
23230;SDS011;11784;49.818;8.632;2023-03-12T05:28:20;1.55;;;0.85;;
23230;SDS011;11784;49.818;8.632;2023-03-12T05:30:51;1.17;;;0.70;;
23230;SDS011;11784;49.818;8.632;2023-03-12T05:33:18;1.10;;;0.85;;
23230;SDS011;11784;49.818;8.632;2023-03-12T05:35:43;0.77;;;0.52;;
23230;SDS011;11784;49.818;8.632;2023-03-12T05:38:09;1.23;;;0.88;;
23230;SDS011;11784;49.818;8.632;2023-03-12T05:40:34;0.98;;;0.60;;
23230;SDS011;11784;49.818;8.632;2023-03-12T05:43:00;2.67;;;1.15;;
23230;SDS011;11784;49.818;8.632;2023-03-12T05:45:28;1.42;;;0.95;;
23230;SDS011;11784;49.818;8.632;2023-03-12T05:47:53;2.03;;;0.68;;
23230;SDS011;11784;49.818;8.632;2023-03-12T05:50:19;0.85;;;0.60;;
23230;SDS011;11784;49.818;8.632;2023-03-12T05:52:44;1.88;;;0.60;;
23230;SDS011;11784;49.818;8.632;2023-03-12T05:55:10;5.32;;;0.88;;
23230;SDS011;11784;49.818;8.632;2023-03-12T05:57:35;1.40;;;0.80;;
23230;SDS011;11784;49.818;8.632;2023-03-12T06:00:01;1.75;;;0.60;;
23230;SDS011;11784;49.818;8.632;2023-03-12T06:02:27;1.52;;;0.60;;
23230;SDS011;11784;49.818;8.632;2023-03-12T06:04:53;1.25;;;0.70;;
23230;SDS011;11784;49.818;8.632;2023-03-12T06:07:18;1.25;;;0.70;;
23230;SDS011;11784;49.818;8.632;2023-03-12T06:09:44;1.40;;;0.80;;
23230;SDS011;11784;49.818;8.632;2023-03-12T06:12:09;1.20;;;0.90;;
23230;SDS011;11784;49.818;8.632;2023-03-12T06:14:35;1.45;;;1.00;;
23230;SDS011;11784;49.818;8.632;2023-03-12T06:17:00;1.00;;;0.80;;
23230;SDS011;11784;49.818;8.632;2023-03-12T06:19:26;3.58;;;0.70;;
23230;SDS011;11784;49.818;8.632;2023-03-12T06:21:52;2.10;;;1.23;;
23230;SDS011;11784;49.818;8.632;2023-03-12T06:24:17;1.40;;;0.88;;
23230;SDS011;11784;49.818;8.632;2023-03-12T06:26:43;3.70;;;1.13;;
23230;SDS011;11784;49.818;8.632;2023-03-12T06:29:08;1.10;;;0.63;;
23230;SDS011;11784;49.818;8.632;2023-03-12T06:31:34;2.10;;;0.77;;
23230;SDS011;11784;49.818;8.632;2023-03-12T06:33:59;2.10;;;1.23;;
23230;SDS011;11784;49.818;8.632;2023-03-12T06:36:26;1.45;;;0.88;;
23230;SDS011;11784;49.818;8.632;2023-03-12T06:38:51;0.80;;;0.80;;
23230;SDS011;11784;49.818;8.632;2023-03-12T06:41:18;3.53;;;0.90;;
23230;SDS011;11784;49.818;8.632;2023-03-12T06:43:44;1.48;;;1.00;;
23230;SDS011;11784;49.818;8.632;2023-03-12T06:46:13;5.32;;;0.88;;
23230;SDS011;11784;49.818;8.632;2023-03-12T06:48:41;0.82;;;0.68;;
23230;SDS011;11784;49.818;8.632;2023-03-12T06:51:07;1.10;;;0.85;;
23230;SDS011;11784;49.818;8.632;2023-03-12T06:53:34;1.80;;;0.90;;
23230;SDS011;11784;49.818;8.632;2023-03-12T06:55:59;1.75;;;1.10;;
23230;SDS011;11784;49.818;8.632;2023-03-12T06:58:25;1.92;;;1.40;;
23230;SDS011;11784;49.818;8.632;2023-03-12T07:00:51;3.15;;;0.80;;
23230;SDS011;11784;49.818;8.632;2023-03-12T07:03:17;1.23;;;0.85;;
23230;SDS011;11784;49.818;8.632;2023-03-12T07:05:43;0.65;;;0.65;;
23230;SDS011;11784;49.818;8.632;2023-03-12T07:08:13;1.88;;;0.70;;
23230;SDS011;11784;49.818;8.632;2023-03-12T07:10:45;1.52;;;1.05;;
23230;SDS011;11784;49.818;8.632;2023-03-12T07:13:12;2.95;;;1.10;;
23230;SDS011;11784;49.818;8.632;2023-03-12T07:15:37;2.22;;;1.27;;
23230;SDS011;11784;49.818;8.632;2023-03-12T07:18:04;4.85;;;0.95;;
23230;SDS011;11784;49.818;8.632;2023-03-12T07:20:30;1.92;;;1.27;;
23230;SDS011;11784;49.818;8.632;2023-03-12T07:22:57;3.80;;;1.17;;
23230;SDS011;11784;49.818;8.632;2023-03-12T07:25:24;1.42;;;0.73;;
23230;SDS011;11784;49.818;8.632;2023-03-12T07:27:50;1.08;;;0.82;;
23230;SDS011;11784;49.818;8.632;2023-03-12T07:30:15;4.35;;;1.30;;
23230;SDS011;11784;49.818;8.632;2023-03-12T07:32:41;1.73;;;1.23;;
23230;SDS011;11784;49.818;8.632;2023-03-12T07:35:06;1.80;;;0.80;;
23230;SDS011;11784;49.818;8.632;2023-03-12T07:37:32;3.58;;;0.75;;
23230;SDS011;11784;49.818;8.632;2023-03-12T07:39:59;1.42;;;0.88;;
23230;SDS011;11784;49.818;8.632;2023-03-12T07:42:24;1.48;;;1.00;;
23230;SDS011;11784;49.818;8.632;2023-03-12T07:44:50;5.65;;;0.80;;
23230;SDS011;11784;49.818;8.632;2023-03-12T07:47:15;1.75;;;0.90;;
23230;SDS011;11784;49.818;8.632;2023-03-12T07:49:41;1.80;;;1.10;;
23230;SDS011;11784;49.818;8.632;2023-03-12T07:52:07;1.30;;;0.77;;
23230;SDS011;11784;49.818;8.632;2023-03-12T07:54:35;4.00;;;1.20;;
23230;SDS011;11784;49.818;8.632;2023-03-12T07:57:01;1.20;;;1.10;;
23230;SDS011;11784;49.818;8.632;2023-03-12T07:59:27;1.73;;;1.02;;
23230;SDS011;11784;49.818;8.632;2023-03-12T08:01:52;2.92;;;0.82;;
23230;SDS011;11784;49.818;8.632;2023-03-12T08:04:18;3.03;;;1.90;;
23230;SDS011;11784;49.818;8.632;2023-03-12T08:06:44;3.13;;;1.17;;
23230;SDS011;11784;49.818;8.632;2023-03-12T08:09:09;7.00;;;2.33;;
23230;SDS011;11784;49.818;8.632;2023-03-12T08:11:35;1.73;;;1.15;;
23230;SDS011;11784;49.818;8.632;2023-03-12T08:14:01;7.43;;;2.53;;
23230;SDS011;11784;49.818;8.632;2023-03-12T08:16:28;1.65;;;1.02;;
23230;SDS011;11784;49.818;8.632;2023-03-12T08:18:53;3.30;;;1.88;;
23230;SDS011;11784;49.818;8.632;2023-03-12T08:21:19;1.25;;;0.85;;
23230;SDS011;11784;49.818;8.632;2023-03-12T08:23:45;6.95;;;1.30;;
23230;SDS011;11784;49.818;8.632;2023-03-12T08:26:10;1.27;;;1.08;;
23230;SDS011;11784;49.818;8.632;2023-03-12T08:28:36;3.00;;;1.27;;
23230;SDS011;11784;49.818;8.632;2023-03-12T08:31:01;2.63;;;1.25;;
23230;SDS011;11784;49.818;8.632;2023-03-12T08:33:27;1.65;;;1.00;;
23230;SDS011;11784;49.818;8.632;2023-03-12T08:35:53;2.65;;;1.08;;
23230;SDS011;11784;49.818;8.632;2023-03-12T08:38:19;2.90;;;1.95;;
23230;SDS011;11784;49.818;8.632;2023-03-12T08:40:45;2.28;;;1.60;;
23230;SDS011;11784;49.818;8.632;2023-03-12T08:43:10;3.85;;;1.45;;
23230;SDS011;11784;49.818;8.632;2023-03-12T08:45:36;1.70;;;1.35;;
23230;SDS011;11784;49.818;8.632;2023-03-12T08:48:02;1.30;;;1.20;;
23230;SDS011;11784;49.818;8.632;2023-03-12T08:50:29;2.03;;;1.23;;
23230;SDS011;11784;49.818;8.632;2023-03-12T08:52:56;1.55;;;0.90;;
23230;SDS011;11784;49.818;8.632;2023-03-12T08:55:22;3.17;;;1.80;;
23230;SDS011;11784;49.818;8.632;2023-03-12T08:57:47;2.80;;;1.40;;
23230;SDS011;11784;49.818;8.632;2023-03-12T09:00:13;3.00;;;1.55;;
23230;SDS011;11784;49.818;8.632;2023-03-12T09:02:41;2.70;;;1.30;;
23230;SDS011;11784;49.818;8.632;2023-03-12T09:05:08;1.90;;;1.55;;
23230;SDS011;11784;49.818;8.632;2023-03-12T09:07:35;1.60;;;1.15;;
23230;SDS011;11784;49.818;8.632;2023-03-12T09:10:01;2.53;;;2.13;;
23230;SDS011;11784;49.818;8.632;2023-03-12T09:12:30;2.28;;;1.45;;
23230;SDS011;11784;49.818;8.632;2023-03-12T09:14:55;2.40;;;1.65;;
23230;SDS011;11784;49.818;8.632;2023-03-12T09:17:21;2.72;;;1.60;;
23230;SDS011;11784;49.818;8.632;2023-03-12T09:19:47;3.35;;;1.90;;
23230;SDS011;11784;49.818;8.632;2023-03-12T09:22:12;3.45;;;1.90;;
23230;SDS011;11784;49.818;8.632;2023-03-12T09:24:38;3.40;;;1.88;;
23230;SDS011;11784;49.818;8.632;2023-03-12T09:27:03;3.28;;;1.80;;
23230;SDS011;11784;49.818;8.632;2023-03-12T09:29:30;2.67;;;1.50;;
23230;SDS011;11784;49.818;8.632;2023-03-12T09:31:55;10.27;;;2.15;;
23230;SDS011;11784;49.818;8.632;2023-03-12T09:34:21;2.40;;;1.42;;
23230;SDS011;11784;49.818;8.632;2023-03-12T09:36:47;3.08;;;1.90;;
23230;SDS011;11784;49.818;8.632;2023-03-12T09:39:12;3.17;;;2.30;;
23230;SDS011;11784;49.818;8.632;2023-03-12T09:41:38;7.15;;;1.52;;
23230;SDS011;11784;49.818;8.632;2023-03-12T09:44:39;3.45;;;1.80;;
23230;SDS011;11784;49.818;8.632;2023-03-12T09:47:09;9.50;;;1.90;;
23230;SDS011;11784;49.818;8.632;2023-03-12T09:49:47;2.30;;;1.27;;
23230;SDS011;11784;49.818;8.632;2023-03-12T09:52:24;3.45;;;1.73;;
23230;SDS011;11784;49.818;8.632;2023-03-12T09:57:46;3.35;;;1.50;;
23230;SDS011;11784;49.818;8.632;2023-03-12T10:00:15;2.17;;;1.50;;
23230;SDS011;11784;49.818;8.632;2023-03-12T10:11:17;0.85;;;0.73;;
23230;SDS011;11784;49.818;8.632;2023-03-12T10:13:59;2.17;;;1.60;;
23230;SDS011;11784;49.818;8.632;2023-03-12T10:25:06;4.25;;;1.52;;
23230;SDS011;11784;49.818;8.632;2023-03-12T10:30:16;3.40;;;2.08;;
23230;SDS011;11784;49.818;8.632;2023-03-12T10:32:49;2.28;;;1.50;;
23230;SDS011;11784;49.818;8.632;2023-03-12T10:35:22;5.28;;;2.05;;
23230;SDS011;11784;49.818;8.632;2023-03-12T10:38:02;4.53;;;1.75;;
23230;SDS011;11784;49.818;8.632;2023-03-12T10:40:34;2.35;;;1.63;;
23230;SDS011;11784;49.818;8.632;2023-03-12T10:43:00;3.97;;;2.30;;
23230;SDS011;11784;49.818;8.632;2023-03-12T10:45:30;5.10;;;2.40;;
23230;SDS011;11784;49.818;8.632;2023-03-12T10:48:08;3.22;;;2.00;;
23230;SDS011;11784;49.818;8.632;2023-03-12T10:50:36;3.67;;;2.10;;
23230;SDS011;11784;49.818;8.632;2023-03-12T10:56:17;3.65;;;1.75;;
23230;SDS011;11784;49.818;8.632;2023-03-12T10:58:47;3.08;;;2.20;;
23230;SDS011;11784;49.818;8.632;2023-03-12T11:01:26;3.08;;;2.05;;
23230;SDS011;11784;49.818;8.632;2023-03-12T11:04:07;3.75;;;2.20;;
23230;SDS011;11784;49.818;8.632;2023-03-12T11:07:05;2.97;;;1.85;;
23230;SDS011;11784;49.818;8.632;2023-03-12T11:09:29;5.82;;;2.70;;
23230;SDS011;11784;49.818;8.632;2023-03-12T11:11:55;4.15;;;2.70;;
23230;SDS011;11784;49.818;8.632;2023-03-12T11:14:25;6.10;;;2.05;;
23230;SDS011;11784;49.818;8.632;2023-03-12T11:16:52;4.25;;;2.42;;
23230;SDS011;11784;49.818;8.632;2023-03-12T11:19:30;2.65;;;1.98;;
23230;SDS011;11784;49.818;8.632;2023-03-12T11:22:05;11.03;;;2.77;;
23230;SDS011;11784;49.818;8.632;2023-03-12T11:24:35;4.75;;;2.70;;
23230;SDS011;11784;49.818;8.632;2023-03-12T11:27:26;4.25;;;2.45;;
23230;SDS011;11784;49.818;8.632;2023-03-12T11:30:09;11.55;;;2.58;;
23230;SDS011;11784;49.818;8.632;2023-03-12T11:35:09;1.10;;;1.00;;
23230;SDS011;11784;49.818;8.632;2023-03-12T11:37:47;5.85;;;2.72;;
23230;SDS011;11784;49.818;8.632;2023-03-12T11:40:47;8.85;;;2.83;;
23230;SDS011;11784;49.818;8.632;2023-03-12T11:43:41;5.45;;;2.72;;
23230;SDS011;11784;49.818;8.632;2023-03-12T11:46:33;3.55;;;2.25;;
23230;SDS011;11784;49.818;8.632;2023-03-12T11:49:27;3.95;;;2.85;;
23230;SDS011;11784;49.818;8.632;2023-03-12T11:51:56;6.28;;;2.47;;
23230;SDS011;11784;49.818;8.632;2023-03-12T12:00:40;5.82;;;2.33;;
23230;SDS011;11784;49.818;8.632;2023-03-12T12:06:05;7.05;;;2.83;;
23230;SDS011;11784;49.818;8.632;2023-03-12T12:08:55;4.50;;;2.03;;
23230;SDS011;11784;49.818;8.632;2023-03-12T12:16:51;6.78;;;2.20;;
23230;SDS011;11784;49.818;8.632;2023-03-12T12:19:59;4.45;;;2.10;;
23230;SDS011;11784;49.818;8.632;2023-03-12T12:34:24;3.35;;;1.85;;
23230;SDS011;11784;49.818;8.632;2023-03-12T12:39:41;3.92;;;2.42;;
23230;SDS011;11784;49.818;8.632;2023-03-12T12:42:14;5.20;;;2.50;;
23230;SDS011;11784;49.818;8.632;2023-03-12T12:44:48;4.28;;;2.10;;
23230;SDS011;11784;49.818;8.632;2023-03-12T12:47:23;4.70;;;2.63;;
23230;SDS011;11784;49.818;8.632;2023-03-12T12:50:05;5.30;;;2.17;;
23230;SDS011;11784;49.818;8.632;2023-03-12T12:52:37;8.25;;;3.22;;
23230;SDS011;11784;49.818;8.632;2023-03-12T12:55:18;8.30;;;1.88;;
23230;SDS011;11784;49.818;8.632;2023-03-12T12:57:53;4.88;;;2.50;;
23230;SDS011;11784;49.818;8.632;2023-03-12T13:03:00;3.72;;;2.08;;
23230;SDS011;11784;49.818;8.632;2023-03-12T13:07:59;5.40;;;2.10;;
23230;SDS011;11784;49.818;8.632;2023-03-12T13:13:03;4.15;;;1.85;;
23230;SDS011;11784;49.818;8.632;2023-03-12T13:15:38;4.88;;;2.50;;
23230;SDS011;11784;49.818;8.632;2023-03-12T13:18:17;5.78;;;1.90;;
23230;SDS011;11784;49.818;8.632;2023-03-12T13:29:49;6.78;;;3.05;;
23230;SDS011;11784;49.818;8.632;2023-03-12T13:32:35;2.80;;;1.73;;
23230;SDS011;11784;49.818;8.632;2023-03-12T13:34:58;4.28;;;2.20;;
23230;SDS011;11784;49.818;8.632;2023-03-12T13:45:32;2.90;;;2.13;;
23230;SDS011;11784;49.818;8.632;2023-03-12T13:48:04;12.45;;;2.38;;
23230;SDS011;11784;49.818;8.632;2023-03-12T13:50:30;4.13;;;1.95;;
23230;SDS011;11784;49.818;8.632;2023-03-12T13:53:07;3.38;;;1.88;;
23230;SDS011;11784;49.818;8.632;2023-03-12T13:55:43;5.57;;;2.40;;
23230;SDS011;11784;49.818;8.632;2023-03-12T13:58:14;6.00;;;2.10;;
23230;SDS011;11784;49.818;8.632;2023-03-12T14:03:34;5.72;;;1.80;;
23230;SDS011;11784;49.818;8.632;2023-03-12T14:14:36;6.68;;;1.50;;
23230;SDS011;11784;49.818;8.632;2023-03-12T14:17:17;4.30;;;1.33;;
23230;SDS011;11784;49.818;8.632;2023-03-12T14:20:04;3.85;;;1.23;;
23230;SDS011;11784;49.818;8.632;2023-03-12T14:22:37;2.45;;;1.10;;
23230;SDS011;11784;49.818;8.632;2023-03-12T14:25:50;3.95;;;1.50;;
23230;SDS011;11784;49.818;8.632;2023-03-12T14:27:59;4.40;;;1.52;;
23230;SDS011;11784;49.818;8.632;2023-03-12T14:30:30;4.05;;;1.65;;
23230;SDS011;11784;49.818;8.632;2023-03-12T14:33:08;3.92;;;1.33;;
23230;SDS011;11784;49.818;8.632;2023-03-12T14:35:50;2.88;;;1.10;;
23230;SDS011;11784;49.818;8.632;2023-03-12T14:38:38;2.95;;;1.40;;
23230;SDS011;11784;49.818;8.632;2023-03-12T14:41:08;3.03;;;1.45;;
23230;SDS011;11784;49.818;8.632;2023-03-12T14:43:42;6.32;;;1.25;;
23230;SDS011;11784;49.818;8.632;2023-03-12T14:46:14;2.40;;;1.27;;
23230;SDS011;11784;49.818;8.632;2023-03-12T14:48:41;4.95;;;1.95;;
23230;SDS011;11784;49.818;8.632;2023-03-12T14:51:15;3.58;;;1.30;;
23230;SDS011;11784;49.818;8.632;2023-03-12T14:54:01;3.03;;;1.10;;
23230;SDS011;11784;49.818;8.632;2023-03-12T14:56:28;6.18;;;0.73;;
23230;SDS011;11784;49.818;8.632;2023-03-12T14:59:01;7.95;;;1.77;;
23230;SDS011;11784;49.818;8.632;2023-03-12T15:01:44;5.50;;;1.38;;
23230;SDS011;11784;49.818;8.632;2023-03-12T15:04:15;1.52;;;0.63;;
23230;SDS011;11784;49.818;8.632;2023-03-12T15:06:44;3.03;;;1.08;;
23230;SDS011;11784;49.818;8.632;2023-03-12T15:09:15;2.75;;;1.05;;
23230;SDS011;11784;49.818;8.632;2023-03-12T15:11:43;3.05;;;1.48;;
23230;SDS011;11784;49.818;8.632;2023-03-12T15:14:14;6.43;;;2.03;;
23230;SDS011;11784;49.818;8.632;2023-03-12T15:16:41;3.75;;;1.48;;
23230;SDS011;11784;49.818;8.632;2023-03-12T15:19:14;10.00;;;2.30;;
23230;SDS011;11784;49.818;8.632;2023-03-12T15:21:44;3.13;;;0.80;;
23230;SDS011;11784;49.818;8.632;2023-03-12T15:24:10;4.93;;;1.58;;
23230;SDS011;11784;49.818;8.632;2023-03-12T15:26:38;6.45;;;1.88;;
23230;SDS011;11784;49.818;8.632;2023-03-12T15:29:17;8.13;;;1.70;;
23230;SDS011;11784;49.818;8.632;2023-03-12T15:34:33;2.70;;;0.80;;
23230;SDS011;11784;49.818;8.632;2023-03-12T15:37:03;8.35;;;1.25;;
23230;SDS011;11784;49.818;8.632;2023-03-12T15:40:27;5.45;;;1.35;;
23230;SDS011;11784;49.818;8.632;2023-03-12T15:42:54;5.22;;;1.48;;
23230;SDS011;11784;49.818;8.632;2023-03-12T15:45:36;4.53;;;1.00;;
23230;SDS011;11784;49.818;8.632;2023-03-12T15:48:03;5.15;;;1.02;;
23230;SDS011;11784;49.818;8.632;2023-03-12T15:50:41;9.02;;;1.45;;
23230;SDS011;11784;49.818;8.632;2023-03-12T15:55:39;7.95;;;1.23;;
23230;SDS011;11784;49.818;8.632;2023-03-12T16:00:52;6.65;;;1.27;;
23230;SDS011;11784;49.818;8.632;2023-03-12T16:03:18;8.30;;;1.60;;
23230;SDS011;11784;49.818;8.632;2023-03-12T16:05:46;4.28;;;1.27;;
23230;SDS011;11784;49.818;8.632;2023-03-12T16:10:41;9.80;;;1.98;;
23230;SDS011;11784;49.818;8.632;2023-03-12T16:13:08;8.93;;;1.20;;
23230;SDS011;11784;49.818;8.632;2023-03-12T16:15:38;3.53;;;1.10;;
23230;SDS011;11784;49.818;8.632;2023-03-12T16:18:04;8.93;;;1.63;;
23230;SDS011;11784;49.818;8.632;2023-03-12T16:23:00;7.95;;;1.33;;
23230;SDS011;11784;49.818;8.632;2023-03-12T16:25:26;4.97;;;0.95;;
23230;SDS011;11784;49.818;8.632;2023-03-12T16:27:52;11.32;;;1.83;;
23230;SDS011;11784;49.818;8.632;2023-03-12T16:30:31;6.68;;;1.13;;
23230;SDS011;11784;49.818;8.632;2023-03-12T16:32:58;3.75;;;0.73;;
23230;SDS011;11784;49.818;8.632;2023-03-12T16:35:25;5.15;;;1.55;;
23230;SDS011;11784;49.818;8.632;2023-03-12T16:37:55;4.70;;;0.93;;
23230;SDS011;11784;49.818;8.632;2023-03-12T16:40:22;6.72;;;1.80;;
23230;SDS011;11784;49.818;8.632;2023-03-12T16:42:48;5.05;;;1.23;;
23230;SDS011;11784;49.818;8.632;2023-03-12T16:45:15;7.00;;;0.70;;
23230;SDS011;11784;49.818;8.632;2023-03-12T16:47:42;7.53;;;1.20;;
23230;SDS011;11784;49.818;8.632;2023-03-12T16:50:18;5.15;;;2.30;;
23230;SDS011;11784;49.818;8.632;2023-03-12T16:52:46;6.85;;;0.68;;
23230;SDS011;11784;49.818;8.632;2023-03-12T16:55:15;4.30;;;1.08;;
23230;SDS011;11784;49.818;8.632;2023-03-12T16:57:46;3.63;;;0.40;;